createdAt,value
2018-10-18T00:00:13.753Z,14.18
2018-10-18T06:09:35.776Z,13.49
2018-10-18T06:12:05.570Z,13.52
2018-10-18T06:14:35.292Z,13.56
2018-10-18T06:17:05.000Z,13.63
2018-10-18T06:19:34.752Z,13.54
2018-10-18T06:22:04.612Z,13.67
2018-10-18T06:24:46.447Z,13.62
2018-10-18T06:27:16.194Z,13.59
2018-10-18T06:30:00.196Z,13.61
2018-10-18T06:32:30.043Z,13.72
2018-10-18T06:34:59.853Z,13.75
2018-10-18T06:37:29.808Z,13.80
2018-10-18T06:39:59.463Z,13.67
2018-10-18T06:42:29.427Z,13.67
2018-10-18T06:44:59.291Z,13.77
2018-10-18T06:47:29.105Z,13.64
2018-10-18T06:49:58.969Z,13.72
2018-10-18T06:52:28.816Z,13.66
2018-10-18T06:54:58.902Z,13.75
2018-10-18T06:57:29.793Z,13.71
2018-10-18T06:59:59.657Z,13.78
2018-10-18T07:02:29.362Z,13.81
2018-10-18T07:04:59.240Z,13.79
2018-10-18T07:07:29.487Z,13.67
2018-10-18T07:09:59.281Z,13.75
2018-10-18T07:12:29.283Z,13.77
2018-10-18T07:14:59.146Z,13.70
2018-10-18T07:17:29.381Z,13.80
2018-10-18T07:19:59.158Z,13.68
2018-10-18T07:22:29.816Z,13.73
2018-10-18T07:24:59.576Z,13.66
2018-10-18T07:27:29.791Z,13.84
2018-10-18T07:29:59.620Z,13.74
2018-10-18T07:32:29.623Z,13.88
2018-10-18T07:34:59.598Z,14.02
2018-10-18T07:37:29.635Z,13.66
2018-10-18T07:39:59.530Z,13.92
2018-10-18T07:42:29.693Z,13.98
2018-10-18T07:44:59.651Z,14.11
2018-10-18T07:47:29.482Z,14.10
2018-10-18T07:49:59.252Z,13.98
2018-10-18T07:52:29.017Z,14.14
2018-10-18T07:54:58.827Z,14.13
2018-10-18T07:57:28.625Z,14.31
2018-10-18T07:59:58.410Z,14.25
2018-10-18T08:02:28.282Z,14.25
2018-10-18T08:04:58.023Z,14.16
2018-10-18T08:07:27.836Z,14.29
2018-10-18T08:09:57.662Z,14.41
2018-10-18T08:12:27.413Z,14.22
2018-10-18T08:14:57.223Z,14.24
2018-10-18T08:17:26.962Z,14.10
2018-10-18T08:19:56.667Z,14.26
2018-10-18T08:22:26.494Z,14.24
2018-10-18T08:24:56.283Z,14.12
2018-10-18T08:27:26.030Z,13.99
2018-10-18T08:30:02.661Z,14.15
2018-10-18T08:32:32.736Z,14.48
2018-10-18T08:35:02.500Z,14.33
2018-10-18T08:37:32.694Z,14.38
2018-10-18T08:40:02.366Z,14.44
2018-10-18T08:42:32.382Z,14.31
2018-10-18T08:45:02.064Z,14.45
2018-10-18T08:47:32.777Z,14.72
2018-10-18T08:50:02.838Z,14.77
2018-10-18T08:52:32.414Z,14.59
2018-10-18T08:55:02.216Z,14.53
2018-10-18T08:57:32.062Z,14.42
2018-10-18T09:00:01.777Z,14.62
2018-10-18T09:02:31.580Z,14.53
2018-10-18T09:05:01.285Z,14.58
2018-10-18T09:07:31.082Z,14.77
2018-10-18T09:10:00.828Z,14.77
2018-10-18T09:12:30.833Z,15.09
2018-10-18T09:15:00.957Z,14.77
2018-10-18T09:17:30.972Z,15.07
2018-10-18T09:20:01.190Z,14.95
2018-10-18T09:22:31.092Z,15.12
2018-10-18T09:25:01.081Z,15.36
2018-10-18T09:27:31.108Z,15.17
2018-10-18T09:30:01.070Z,15.33
2018-10-18T09:32:31.765Z,15.45
2018-10-18T09:35:01.660Z,15.84
2018-10-18T09:37:31.582Z,15.32
2018-10-18T09:40:01.445Z,15.28
2018-10-18T09:42:31.402Z,15.32
2018-10-18T09:45:01.304Z,15.49
2018-10-18T09:47:31.068Z,15.45
2018-10-18T09:50:00.841Z,15.75
2018-10-18T09:52:30.660Z,15.62
2018-10-18T09:55:00.438Z,15.25
2018-10-18T09:57:30.269Z,15.04
2018-10-18T10:00:00.035Z,15.25
2018-10-18T10:02:35.008Z,15.73
2018-10-18T10:05:05.014Z,15.73
2018-10-18T10:07:34.873Z,15.62
2018-10-18T10:10:04.828Z,15.34
2018-10-18T10:12:34.640Z,15.37
2018-10-18T10:15:04.568Z,15.47
2018-10-18T10:17:34.462Z,15.54
2018-10-18T10:20:04.591Z,15.88
2018-10-18T10:22:34.335Z,15.84
2018-10-18T10:25:10.880Z,16.31
2018-10-18T10:27:40.845Z,16.46
2018-10-18T10:30:10.839Z,16.13
2018-10-18T10:32:40.871Z,16.11
2018-10-18T10:35:10.632Z,16.06
2018-10-18T10:37:40.379Z,16.08
2018-10-18T10:40:11.384Z,16.09
2018-10-18T10:42:42.428Z,16.33
2018-10-18T10:45:13.232Z,16.36
2018-10-18T10:47:43.299Z,15.95
2018-10-18T10:50:13.220Z,16.49
2018-10-18T10:52:43.073Z,16.35
2018-10-18T10:55:12.837Z,16.78
2018-10-18T10:57:42.998Z,16.79
2018-10-18T11:00:15.828Z,16.90
2018-10-18T11:02:45.917Z,16.06
2018-10-18T11:05:15.686Z,15.86
2018-10-18T11:07:46.102Z,16.18
2018-10-18T11:10:15.880Z,16.28
2018-10-18T11:12:46.335Z,16.67
2018-10-18T11:15:16.151Z,16.24
2018-10-18T11:17:46.308Z,16.49
2018-10-18T11:20:16.261Z,16.61
2018-10-18T11:22:46.834Z,16.58
2018-10-18T11:25:16.688Z,16.22
2018-10-18T11:27:46.801Z,16.34
2018-10-18T11:30:19.452Z,16.43
2018-10-18T11:32:56.195Z,16.75
2018-10-18T11:35:26.186Z,16.50
2018-10-18T11:37:56.067Z,16.78
2018-10-18T11:40:28.035Z,16.72
2018-10-18T11:42:58.084Z,17.23
2018-10-18T11:45:28.030Z,16.69
2018-10-18T11:47:57.926Z,16.57
2018-10-18T11:50:28.126Z,16.90
2018-10-18T11:52:58.611Z,16.58
2018-10-18T11:55:28.990Z,16.46
2018-10-18T11:57:58.773Z,16.81
2018-10-18T12:00:28.505Z,16.37
2018-10-18T12:02:58.290Z,16.00
2018-10-18T12:05:28.085Z,16.11
2018-10-18T12:07:57.874Z,16.11
2018-10-18T12:10:27.620Z,16.02
2018-10-18T12:12:57.332Z,15.36
2018-10-18T12:15:27.108Z,15.30
2018-10-18T12:17:56.940Z,15.49
2018-10-18T12:20:26.732Z,15.17
2018-10-18T12:22:56.526Z,15.35
2018-10-18T12:25:26.410Z,15.29
2018-10-18T12:27:56.259Z,15.61
2018-10-18T12:30:26.212Z,15.71
2018-10-18T12:32:56.072Z,15.81
2018-10-18T12:35:25.961Z,15.51
2018-10-18T12:37:55.779Z,15.68
2018-10-18T12:40:25.892Z,15.84
2018-10-18T12:42:55.752Z,15.84
2018-10-18T12:45:25.477Z,15.75
2018-10-18T12:47:55.557Z,15.60
2018-10-18T12:50:25.313Z,15.50
2018-10-18T12:52:55.214Z,15.51
2018-10-18T12:55:25.002Z,15.47
2018-10-18T12:57:55.244Z,15.75
2018-10-18T13:00:25.114Z,15.69
2018-10-18T13:02:55.313Z,15.74
2018-10-18T13:05:25.166Z,15.82
2018-10-18T13:07:55.161Z,15.69
2018-10-18T13:10:25.000Z,15.79
2018-10-18T13:12:55.108Z,15.90
2018-10-18T13:15:24.956Z,15.64
2018-10-18T13:17:55.107Z,15.32
2018-10-18T13:20:24.919Z,15.59
2018-10-18T13:22:55.030Z,15.44
2018-10-18T13:25:24.809Z,15.73
2018-10-18T13:27:54.741Z,15.76
2018-10-18T13:30:24.537Z,15.59
2018-10-18T13:32:54.454Z,15.69
2018-10-18T13:35:24.365Z,15.44
2018-10-18T13:37:54.254Z,15.65
2018-10-18T13:40:24.098Z,15.82
2018-10-18T13:42:54.013Z,15.81
2018-10-18T13:45:24.144Z,15.54
2018-10-18T13:47:53.959Z,15.51
2018-10-18T13:50:23.833Z,15.48
2018-10-18T13:52:53.816Z,15.68
2018-10-18T13:55:23.739Z,15.69
2018-10-18T13:57:53.783Z,15.88
2018-10-18T14:00:28.363Z,15.69
2018-10-18T14:02:58.647Z,15.57
2018-10-18T14:05:28.934Z,15.39
2018-10-18T14:07:59.193Z,15.49
2018-10-18T14:10:29.105Z,15.68
2018-10-18T14:12:59.367Z,15.65
2018-10-18T14:15:29.209Z,15.42
2018-10-18T14:17:59.510Z,15.29
2018-10-18T14:20:29.328Z,15.20
2018-10-18T14:22:59.960Z,15.13
2018-10-18T14:25:29.939Z,15.24
2018-10-18T14:28:00.586Z,15.30
2018-10-18T14:30:30.808Z,15.20
2018-10-18T14:33:01.108Z,15.30
2018-10-18T14:35:30.996Z,15.26
2018-10-18T14:38:01.354Z,15.19
2018-10-18T14:40:31.302Z,15.12
2018-10-18T14:43:01.707Z,14.98
2018-10-18T14:45:31.648Z,15.01
2018-10-18T14:48:01.809Z,14.78
2018-10-18T14:50:32.058Z,14.62
2018-10-18T14:53:02.279Z,14.55
2018-10-18T14:55:32.375Z,14.46
2018-10-18T14:58:02.539Z,14.36
2018-10-18T15:00:33.035Z,14.22
2018-10-18T15:03:03.161Z,14.31
2018-10-18T15:05:33.059Z,14.08
2018-10-18T15:08:03.237Z,14.07
2018-10-18T15:10:33.068Z,13.89
2018-10-18T15:13:03.669Z,13.89
2018-10-18T15:15:33.459Z,13.97
2018-10-18T15:18:03.517Z,13.86
2018-10-18T15:20:33.379Z,13.85
2018-10-18T15:23:03.844Z,13.75
2018-10-18T15:25:34.026Z,13.78
2018-10-18T15:28:03.800Z,13.71
2018-10-18T15:30:33.587Z,13.69
2018-10-18T15:33:03.952Z,13.53
2018-10-18T15:35:33.799Z,13.64
2018-10-18T15:38:03.742Z,13.63
2018-10-18T15:40:33.534Z,13.66
2018-10-18T15:43:03.551Z,13.53
2018-10-18T15:45:33.533Z,13.50
2018-10-18T15:48:03.311Z,13.50
2018-10-18T15:50:33.224Z,13.48
2018-10-18T15:53:03.014Z,13.53
2018-10-18T15:55:33.171Z,13.55
2018-10-18T15:58:03.123Z,13.62
2018-10-18T16:00:32.899Z,13.44
2018-10-18T16:03:02.795Z,13.49
2018-10-18T16:05:32.539Z,13.44
2018-10-18T16:08:02.293Z,13.54
2018-10-18T16:10:32.101Z,13.34
2018-10-18T16:13:02.170Z,13.38
2018-10-18T16:15:31.937Z,13.34
2018-10-18T16:18:01.752Z,13.28
2018-10-18T16:20:31.569Z,13.11
2018-10-18T16:23:01.387Z,13.13
2018-10-18T16:25:31.202Z,13.08
2018-10-18T16:28:01.046Z,13.05
2018-10-18T16:30:30.853Z,13.05
2018-10-18T16:33:00.819Z,13.03
2018-10-18T16:35:30.604Z,13.01
2018-10-18T16:38:00.474Z,13.00
2018-10-18T16:40:30.236Z,12.97
2018-10-18T16:43:00.341Z,13.06
2018-10-18T16:45:30.138Z,13.08
2018-10-18T16:47:59.958Z,13.11
2018-10-18T16:50:29.832Z,13.09
2018-10-18T16:52:59.628Z,13.15
2018-10-18T16:55:29.470Z,13.23
2018-10-18T16:57:59.393Z,13.19
2018-10-18T17:00:31.454Z,13.22
2018-10-18T17:03:02.886Z,13.12
2018-10-18T17:05:33.055Z,13.15
2018-10-18T17:08:03.033Z,13.16
2018-10-18T17:10:32.837Z,13.17
2018-10-18T17:13:02.914Z,13.12
2018-10-18T17:15:32.808Z,13.18
2018-10-18T17:18:02.817Z,13.23
2018-10-18T17:20:33.117Z,13.22
2018-10-18T17:23:03.073Z,13.27
2018-10-18T17:25:33.433Z,13.15
2018-10-18T17:28:03.647Z,13.13
2018-10-18T17:30:33.633Z,13.26
2018-10-18T17:33:03.663Z,13.28
2018-10-18T17:35:33.705Z,13.27
2018-10-18T17:38:03.669Z,13.19
2018-10-18T17:40:33.602Z,13.13
2018-10-18T17:43:03.391Z,13.11
2018-10-18T17:45:33.170Z,13.13
2018-10-18T17:48:03.073Z,13.10
2018-10-18T17:50:33.060Z,13.09
2018-10-18T17:53:03.097Z,13.08
2018-10-18T17:55:32.988Z,13.14
2018-10-18T17:58:03.122Z,13.05
2018-10-18T18:00:33.059Z,13.04
2018-10-18T18:03:02.834Z,13.02
2018-10-18T18:05:32.697Z,13.03
2018-10-18T18:08:02.811Z,13.01
2018-10-18T18:10:32.569Z,12.98
2018-10-18T18:13:03.051Z,13.00
2018-10-18T18:15:32.994Z,13.07
2018-10-18T18:18:02.949Z,13.06
2018-10-18T18:20:33.032Z,13.07
2018-10-18T18:23:02.926Z,13.06
2018-10-18T18:25:32.838Z,12.88
2018-10-18T18:28:02.841Z,13.02
2018-10-18T18:30:32.787Z,12.98
2018-10-18T18:33:03.008Z,13.00
2018-10-18T18:35:32.996Z,12.92
2018-10-18T18:38:03.133Z,12.99
2018-10-18T18:40:37.042Z,12.89
2018-10-18T18:43:08.308Z,13.02
2018-10-18T18:45:38.267Z,12.87
2018-10-18T18:48:09.237Z,12.87
2018-10-18T18:50:39.126Z,12.92
2018-10-18T18:53:09.050Z,12.87
2018-10-18T18:55:38.792Z,12.88
2018-10-18T18:58:08.768Z,12.85
2018-10-18T19:00:38.676Z,12.91
2018-10-18T19:03:08.545Z,12.83
2018-10-18T19:05:38.408Z,12.94
2018-10-18T19:08:11.997Z,12.93
2018-10-18T19:10:46.252Z,12.92
2018-10-18T19:13:20.468Z,12.99
2018-10-18T19:15:54.435Z,12.92
2018-10-18T19:18:28.193Z,12.88
2018-10-18T19:20:58.204Z,12.91
2018-10-18T19:23:28.263Z,12.85
2018-10-18T19:25:58.234Z,12.81
2018-10-18T19:28:28.469Z,12.87
2018-10-18T19:30:58.417Z,12.87
2018-10-18T19:33:28.798Z,12.78
2018-10-18T19:35:59.138Z,12.69
2018-10-18T19:38:29.238Z,12.69
2018-10-18T19:40:59.373Z,12.63
2018-10-18T19:43:29.405Z,12.63
2018-10-18T19:45:59.557Z,12.67
2018-10-18T19:48:29.522Z,12.63
2018-10-18T19:50:59.604Z,12.68
2018-10-18T19:53:29.687Z,12.63
2018-10-18T19:55:59.662Z,12.64
2018-10-18T19:58:29.652Z,12.58
2018-10-18T20:00:59.826Z,12.52
2018-10-18T20:03:29.947Z,12.50
2018-10-18T20:05:59.921Z,12.51
2018-10-18T20:08:29.837Z,12.49
2018-10-18T20:10:59.795Z,12.45
2018-10-18T20:13:29.762Z,12.46
2018-10-18T20:15:59.713Z,12.42
2018-10-18T20:18:29.787Z,12.45
2018-10-18T20:20:59.938Z,12.42
2018-10-18T20:23:29.716Z,12.42
2018-10-18T20:25:59.809Z,12.45
2018-10-18T20:28:29.735Z,12.44
2018-10-18T20:30:59.666Z,12.41
2018-10-18T20:33:29.656Z,12.36
2018-10-18T20:35:59.645Z,12.37
2018-10-18T20:38:29.407Z,12.34
2018-10-18T20:40:59.411Z,12.24
2018-10-18T20:43:29.418Z,12.19
2018-10-18T20:45:59.377Z,12.12
2018-10-18T20:48:29.225Z,12.10
2018-10-18T20:50:59.279Z,12.08
2018-10-18T20:53:34.216Z,11.95
2018-10-18T20:56:04.113Z,11.94
2018-10-18T20:58:33.988Z,11.95
2018-10-18T21:01:03.850Z,11.90
2018-10-18T21:03:33.743Z,11.89
2018-10-18T21:06:03.575Z,11.86
2018-10-18T21:08:33.604Z,11.84
2018-10-18T21:11:03.981Z,11.74
2018-10-18T21:13:33.764Z,11.77
2018-10-18T21:16:03.652Z,11.70
2018-10-18T21:18:33.584Z,11.60
2018-10-18T21:21:03.546Z,11.58
2018-10-18T21:23:33.462Z,11.52
2018-10-18T21:26:03.302Z,11.41
2018-10-18T21:28:33.284Z,11.33
2018-10-18T21:31:03.202Z,11.28
2018-10-18T21:33:33.041Z,11.24
2018-10-18T21:36:02.914Z,11.20
2018-10-18T21:38:32.715Z,11.09
2018-10-18T21:41:02.713Z,11.11
2018-10-18T21:43:32.740Z,11.07
2018-10-18T21:46:02.630Z,11.02
2018-10-18T21:48:33.372Z,11.03
2018-10-18T21:51:03.258Z,10.99
2018-10-18T21:53:33.675Z,10.90
2018-10-18T21:56:03.531Z,10.90
2018-10-18T21:58:33.673Z,10.82
2018-10-18T22:01:03.620Z,10.86
2018-10-18T22:03:34.383Z,10.84
2018-10-18T22:06:04.691Z,10.82
2018-10-18T22:08:34.889Z,10.81
2018-10-18T22:11:04.795Z,10.80
2018-10-18T22:13:35.245Z,10.80
2018-10-18T22:16:05.400Z,10.77
2018-10-18T22:18:35.302Z,10.76
2018-10-18T22:21:08.279Z,10.70
2018-10-18T22:23:38.106Z,10.71
2018-10-18T22:26:07.968Z,10.66
2018-10-18T22:28:37.852Z,10.63
2018-10-18T22:31:07.845Z,10.63
2018-10-18T22:33:38.217Z,10.57
2018-10-18T22:36:08.101Z,10.56
2018-10-18T22:38:37.985Z,10.51
2018-10-18T22:41:08.694Z,10.44
2018-10-18T22:43:38.621Z,10.40
2018-10-18T22:46:09.314Z,10.36
2018-10-18T22:48:39.216Z,10.31
2018-10-18T22:51:09.112Z,10.31
2018-10-18T22:53:38.886Z,10.26
2018-10-18T22:56:08.790Z,10.23
2018-10-18T22:58:39.044Z,10.20
2018-10-18T23:01:08.975Z,10.11
2018-10-18T23:03:39.468Z,10.09
2018-10-18T23:06:09.260Z,10.05
2018-10-18T23:08:39.563Z,10.04
2018-10-18T23:11:09.487Z,10.00
2018-10-18T23:13:39.647Z,10.01
2018-10-18T23:16:09.570Z,9.95
2018-10-18T23:18:39.760Z,9.92
2018-10-18T23:21:09.657Z,9.84
2018-10-18T23:23:39.889Z,9.84
2018-10-18T23:26:09.865Z,9.80
2018-10-18T23:28:40.444Z,9.83
2018-10-18T23:31:10.319Z,9.81
2018-10-18T23:33:40.435Z,9.78
2018-10-18T23:36:10.155Z,9.70
2018-10-18T23:38:40.476Z,9.66
2018-10-18T23:41:10.219Z,9.61
2018-10-18T23:43:40.225Z,9.57
2018-10-18T23:46:09.999Z,9.56
2018-10-18T23:48:40.403Z,9.51
2018-10-18T23:51:10.182Z,9.54
2018-10-18T23:53:40.301Z,9.43
2018-10-18T23:56:10.149Z,9.43
2018-10-18T23:58:40.352Z,9.46
